createdAt,value
2018-02-06T00:01:53.529Z,-2.30
2018-02-06T00:04:21.352Z,-2.31
2018-02-06T00:06:49.121Z,-2.29
2018-02-06T00:09:16.969Z,-2.29
2018-02-06T00:11:44.732Z,-2.26
2018-02-06T00:14:12.528Z,-2.23
2018-02-06T00:16:40.265Z,-2.24
2018-02-06T00:19:08.127Z,-2.24
2018-02-06T00:21:35.947Z,-2.20
2018-02-06T00:24:03.775Z,-2.22
2018-02-06T00:26:31.534Z,-2.26
2018-02-06T00:28:59.362Z,-2.30
2018-02-06T00:31:27.155Z,-2.31
2018-02-06T00:33:54.931Z,-2.35
2018-02-06T00:36:22.699Z,-2.39
2018-02-06T00:38:50.516Z,-2.39
2018-02-06T00:41:18.312Z,-2.45
2018-02-06T00:43:46.108Z,-2.52
2018-02-06T00:46:13.892Z,-2.57
2018-02-06T00:48:41.808Z,-2.60
2018-02-06T00:51:09.572Z,-2.59
2018-02-06T00:53:37.430Z,-2.57
2018-02-06T00:56:05.187Z,-2.47
2018-02-06T00:58:33.015Z,-2.34
2018-02-06T01:01:00.805Z,-2.34
2018-02-06T01:03:28.644Z,-2.35
2018-02-06T01:05:56.400Z,-2.42
2018-02-06T01:08:24.228Z,-2.46
2018-02-06T01:10:51.996Z,-2.46
2018-02-06T01:13:19.797Z,-2.48
2018-02-06T01:15:47.548Z,-2.54
2018-02-06T01:18:15.371Z,-2.57
2018-02-06T01:20:43.130Z,-2.62
2018-02-06T01:23:10.987Z,-2.67
2018-02-06T01:25:38.761Z,-2.71
2018-02-06T01:28:06.564Z,-2.72
2018-02-06T01:30:34.348Z,-2.72
2018-02-06T01:33:02.222Z,-2.73
2018-02-06T01:35:29.975Z,-2.72
2018-02-06T01:37:57.847Z,-2.69
2018-02-06T01:40:25.606Z,-2.67
2018-02-06T01:42:53.335Z,-2.68
2018-02-06T01:45:21.236Z,-2.67
2018-02-06T01:47:49.058Z,-2.67
2018-02-06T01:50:16.851Z,-2.68
2018-02-06T01:52:44.612Z,-2.64
2018-02-06T01:55:12.453Z,-2.63
2018-02-06T01:57:40.272Z,-2.63
2018-02-06T02:00:08.066Z,-2.64
2018-02-06T02:02:35.856Z,-2.66
2018-02-06T02:05:03.682Z,-2.65
2018-02-06T02:07:31.448Z,-2.67
2018-02-06T02:09:59.219Z,-2.66
2018-02-06T02:12:27.027Z,-2.55
2018-02-06T02:14:54.815Z,-2.48
2018-02-06T02:17:22.595Z,-2.48
2018-02-06T02:19:50.386Z,-2.53
2018-02-06T02:22:18.115Z,-2.55
2018-02-06T02:24:45.884Z,-2.64
2018-02-06T02:27:13.681Z,-2.68
2018-02-06T02:29:41.505Z,-2.73
2018-02-06T02:32:09.242Z,-2.75
2018-02-06T02:34:37.015Z,-2.82
2018-02-06T02:37:04.870Z,-2.89
2018-02-06T02:39:32.708Z,-2.92
2018-02-06T04:40:11.951Z,-4.04
2018-02-06T04:42:39.725Z,-4.08
2018-02-06T04:45:07.525Z,-4.14
2018-02-06T04:47:35.311Z,-4.16
2018-02-06T04:50:03.177Z,-4.18
2018-02-06T04:52:30.957Z,-4.19
2018-02-06T04:54:58.847Z,-4.19
2018-02-06T04:57:26.627Z,-4.22
2018-02-06T04:59:54.491Z,-4.32
2018-02-06T05:02:22.251Z,-4.34
2018-02-06T05:04:50.014Z,-4.37
2018-02-06T05:07:17.881Z,-4.40
2018-02-06T05:09:45.665Z,-4.43
2018-02-06T05:12:13.480Z,-4.38
2018-02-06T05:14:41.341Z,-4.36
2018-02-06T05:17:09.186Z,-4.35
2018-02-06T05:19:36.970Z,-4.39
2018-02-06T05:22:04.808Z,-4.40
2018-02-06T05:24:32.590Z,-4.39
2018-02-06T05:27:00.462Z,-4.43
2018-02-06T05:29:28.232Z,-4.48
2018-02-06T05:31:56.078Z,-4.49
2018-02-06T05:34:23.854Z,-4.48
2018-02-06T05:36:51.663Z,-4.47
2018-02-06T05:39:19.499Z,-4.48
2018-02-06T05:41:47.319Z,-4.51
2018-02-06T05:44:15.129Z,-4.53
2018-02-06T05:46:42.972Z,-4.55
2018-02-06T05:49:10.744Z,-4.57
2018-02-06T05:51:38.567Z,-4.58
2018-02-06T05:54:06.351Z,-4.56
2018-02-06T05:56:34.200Z,-4.53
2018-02-06T05:59:01.999Z,-4.49
2018-02-06T06:01:29.812Z,-4.46
2018-02-06T06:03:57.655Z,-4.42
2018-02-06T06:06:25.489Z,-4.43
2018-02-06T06:08:53.267Z,-4.43
2018-02-06T06:11:21.084Z,-4.42
2018-02-06T06:13:48.874Z,-4.38
2018-02-06T06:16:16.703Z,-4.34
2018-02-06T06:18:44.527Z,-4.33
2018-02-06T06:21:12.352Z,-4.32
2018-02-06T06:23:40.229Z,-4.38
2018-02-06T06:26:08.137Z,-4.42
2018-02-06T06:28:35.944Z,-4.46
2018-02-06T06:31:03.836Z,-4.51
2018-02-06T06:33:31.682Z,-4.55
2018-02-06T06:35:59.555Z,-4.44
2018-02-06T06:38:27.402Z,-4.52
2018-02-06T06:40:55.320Z,-4.59
2018-02-06T06:43:23.164Z,-4.67
2018-02-06T06:45:51.046Z,-4.77
2018-02-06T06:48:18.864Z,-4.84
2018-02-06T06:50:46.715Z,-4.85
2018-02-06T06:53:14.607Z,-4.86
2018-02-06T06:55:42.411Z,-4.84
2018-02-06T06:58:10.314Z,-4.84
2018-02-06T07:00:38.126Z,-4.84
2018-02-06T07:03:05.990Z,-4.83
2018-02-06T07:05:33.844Z,-4.84
2018-02-06T07:08:01.698Z,-4.80
2018-02-06T07:10:29.519Z,-4.77
2018-02-06T07:12:57.440Z,-4.75
2018-02-06T07:15:25.265Z,-4.69
2018-02-06T07:17:53.153Z,-4.65
2018-02-06T07:20:21.046Z,-4.59
2018-02-06T07:22:48.923Z,-4.53
2018-02-06T07:25:16.756Z,-4.48
2018-02-06T07:27:44.628Z,-4.41
2018-02-06T07:30:12.468Z,-4.35
2018-02-06T07:32:40.355Z,-4.32
2018-02-06T07:35:08.212Z,-4.25
2018-02-06T07:37:36.112Z,-4.16
2018-02-06T07:40:04.026Z,-4.01
2018-02-06T07:42:31.941Z,-3.84
2018-02-06T07:44:59.797Z,-3.72
2018-02-06T07:47:27.719Z,-3.62
2018-02-06T07:49:55.573Z,-3.54
2018-02-06T07:52:23.479Z,-3.53
2018-02-06T07:54:51.319Z,-3.45
2018-02-06T07:57:19.186Z,-3.40
2018-02-06T07:59:47.027Z,-3.39
2018-02-06T08:02:14.967Z,-3.25
2018-02-06T08:04:42.832Z,-3.15
2018-02-06T08:07:10.716Z,-3.03
2018-02-06T08:09:38.556Z,-2.86
2018-02-06T08:12:06.451Z,-2.72
2018-02-06T08:14:34.267Z,-2.57
2018-02-06T08:17:02.137Z,-2.37
2018-02-06T08:19:29.989Z,-2.28
2018-02-06T08:21:57.853Z,-2.19
2018-02-06T08:24:25.691Z,-2.12
2018-02-06T08:26:53.656Z,-1.97
2018-02-06T08:29:21.607Z,-1.86
2018-02-06T08:31:49.528Z,-1.91
2018-02-06T08:34:17.312Z,-1.95
2018-02-06T08:36:45.260Z,-1.89
2018-02-06T08:39:13.200Z,-1.85
2018-02-06T08:41:41.102Z,-1.88
2018-02-06T08:44:09.059Z,-1.92
2018-02-06T08:46:36.991Z,-1.81
2018-02-06T08:49:04.895Z,-1.80
2018-02-06T08:51:32.768Z,-1.72
2018-02-06T08:54:00.681Z,-1.64
2018-02-06T08:56:28.532Z,-1.53
2018-02-06T08:58:56.520Z,-1.47
2018-02-06T09:01:24.534Z,-1.40
2018-02-06T09:03:52.474Z,-1.36
2018-02-06T09:06:20.407Z,-1.30
2018-02-06T09:08:48.364Z,-1.38
2018-02-06T09:11:16.259Z,-1.32
2018-02-06T09:13:44.387Z,-1.26
2018-02-06T09:16:12.156Z,-1.12
2018-02-06T09:18:40.093Z,-1.09
2018-02-06T09:21:08.148Z,-1.06
2018-02-06T09:23:36.055Z,-0.86
2018-02-06T09:26:03.886Z,-0.66
2018-02-06T09:28:31.804Z,-0.63
2018-02-06T09:30:59.859Z,-0.60
2018-02-06T09:33:27.823Z,-0.54
2018-02-06T09:35:55.825Z,-0.59
2018-02-06T09:38:23.709Z,-0.63
2018-02-06T09:40:51.579Z,-0.46
2018-02-06T09:43:19.451Z,-0.43
2018-02-06T09:45:47.249Z,-0.39
2018-02-06T09:48:15.143Z,-0.47
2018-02-06T09:50:42.988Z,-0.53
2018-02-06T09:53:10.956Z,-0.59
2018-02-06T09:55:38.815Z,-0.45
2018-02-06T09:58:06.667Z,-0.48
2018-02-06T10:00:34.528Z,-0.49
2018-02-06T10:03:02.400Z,-0.49
2018-02-06T10:05:30.242Z,-0.38
2018-02-06T10:07:58.107Z,-0.26
2018-02-06T10:10:25.956Z,-0.16
2018-02-06T10:12:53.819Z,-0.19
2018-02-06T10:15:21.664Z,-0.27
2018-02-06T10:17:49.478Z,-0.34
2018-02-06T10:20:17.316Z,-0.24
2018-02-06T10:22:45.143Z,-0.15
2018-02-06T10:25:13.059Z,-0.10
2018-02-06T10:27:40.860Z,0.04
2018-02-06T10:30:08.765Z,0.19
2018-02-06T10:32:36.675Z,0.19
2018-02-06T10:35:04.538Z,0.32
2018-02-06T10:37:32.366Z,0.35
2018-02-06T10:40:00.251Z,0.29
2018-02-06T10:42:28.041Z,0.07
2018-02-06T10:44:55.882Z,0.10
2018-02-06T10:47:23.677Z,0.19
2018-02-06T10:49:51.544Z,0.30
2018-02-06T10:52:19.350Z,0.29
2018-02-06T10:54:47.235Z,0.13
2018-02-06T10:57:15.083Z,0.04
2018-02-06T10:59:43.132Z,-0.10
2018-02-06T11:02:10.962Z,-0.07
2018-02-06T11:04:38.914Z,-0.03
2018-02-06T11:07:06.761Z,-0.14
2018-02-06T11:09:34.677Z,0.08
2018-02-06T11:12:02.491Z,0.30
2018-02-06T11:14:30.319Z,0.27
2018-02-06T11:16:58.152Z,0.36
2018-02-06T11:19:26.017Z,0.21
2018-02-06T11:21:53.854Z,0.00
2018-02-06T11:24:21.689Z,0.10
2018-02-06T11:26:49.502Z,0.26
2018-02-06T11:29:17.410Z,0.20
2018-02-06T11:31:45.248Z,0.21
2018-02-06T11:34:13.113Z,0.21
2018-02-06T11:36:40.922Z,0.16
2018-02-06T11:39:08.770Z,0.26
2018-02-06T11:41:36.639Z,0.27
2018-02-06T11:44:04.478Z,0.23
2018-02-06T11:46:32.288Z,0.38
2018-02-06T11:49:00.204Z,0.28
2018-02-06T11:51:28.039Z,0.15
2018-02-06T11:53:55.895Z,0.10
2018-02-06T11:56:23.720Z,0.06
2018-02-06T11:58:51.595Z,0.19
2018-02-06T12:01:19.420Z,0.28
2018-02-06T12:03:47.271Z,0.16
2018-02-06T12:06:15.192Z,0.32
2018-02-06T12:08:43.035Z,0.46
2018-02-06T12:11:10.939Z,0.55
2018-02-06T12:13:38.758Z,0.61
2018-02-06T12:16:06.664Z,0.44
2018-02-06T12:18:34.471Z,0.28
2018-02-06T12:21:02.341Z,0.25
2018-02-06T12:23:30.129Z,0.33
2018-02-06T12:25:57.976Z,0.25
2018-02-06T12:28:25.794Z,0.14
2018-02-06T12:30:53.670Z,0.17
2018-02-06T12:33:21.525Z,0.23
2018-02-06T12:35:49.423Z,0.16
2018-02-06T12:38:17.324Z,0.13
2018-02-06T12:40:48.045Z,0.21
2018-02-06T12:43:15.798Z,0.31
2018-02-06T12:45:43.700Z,0.21
2018-02-06T12:48:11.558Z,0.28
2018-02-06T12:50:39.496Z,0.22
2018-02-06T12:53:07.277Z,0.34
2018-02-06T12:55:35.101Z,0.23
2018-02-06T12:58:02.979Z,0.32
2018-02-06T13:00:30.817Z,0.33
2018-02-06T13:02:58.635Z,0.31
2018-02-06T13:05:26.724Z,0.26
2018-02-06T13:07:54.510Z,0.24
2018-02-06T13:10:22.361Z,0.32
2018-02-06T13:12:50.211Z,0.44
2018-02-06T13:15:18.015Z,0.37
2018-02-06T13:17:45.779Z,0.41
2018-02-06T13:20:13.607Z,0.37
2018-02-06T13:22:41.495Z,0.35
2018-02-06T13:25:09.309Z,0.33
2018-02-06T13:27:37.120Z,0.24
2018-02-06T13:30:04.970Z,0.30
2018-02-06T13:32:32.824Z,0.35
2018-02-06T13:35:00.662Z,0.39
2018-02-06T13:37:28.444Z,0.36
2018-02-06T13:39:56.334Z,0.36
2018-02-06T13:42:24.099Z,0.31
2018-02-06T13:44:51.959Z,0.21
2018-02-06T13:47:19.693Z,0.32
2018-02-06T13:49:47.689Z,0.33
2018-02-06T13:52:15.635Z,0.34
2018-02-06T13:54:43.489Z,0.30
2018-02-06T13:57:11.513Z,0.31
2018-02-06T13:59:39.340Z,0.14
2018-02-06T14:02:07.200Z,0.04
2018-02-06T14:04:34.944Z,0.02
2018-02-06T14:07:02.857Z,0.03
2018-02-06T14:09:30.649Z,0.07
2018-02-06T14:11:58.572Z,-0.01
2018-02-06T14:14:26.300Z,0.03
2018-02-06T14:16:54.208Z,0.09
2018-02-06T14:19:22.041Z,0.12
2018-02-06T14:21:49.982Z,0.15
2018-02-06T14:24:17.817Z,0.05
2018-02-06T14:26:45.840Z,-0.05
2018-02-06T14:29:13.710Z,-0.15
2018-02-06T14:31:41.659Z,-0.09
2018-02-06T14:34:09.564Z,-0.17
2018-02-06T14:36:37.619Z,-0.16
2018-02-06T14:39:05.539Z,-0.13
2018-02-06T14:41:33.659Z,-0.16
2018-02-06T14:44:01.532Z,-0.15
2018-02-06T14:46:29.352Z,-0.19
2018-02-06T14:48:57.187Z,-0.19
2018-02-06T14:51:25.095Z,-0.22
2018-02-06T14:53:52.997Z,-0.23
2018-02-06T14:56:21.002Z,-0.23
2018-02-06T14:58:48.892Z,-0.28
2018-02-06T15:01:16.722Z,-0.32
2018-02-06T15:03:44.733Z,-0.37
2018-02-06T15:06:12.691Z,-0.39
2018-02-06T15:08:40.525Z,-0.47
2018-02-06T15:11:08.457Z,-0.56
2018-02-06T15:13:36.315Z,-0.61
2018-02-06T15:16:04.539Z,-0.62
2018-02-06T15:18:33.445Z,-0.63
2018-02-06T15:21:02.414Z,-0.66
2018-02-06T15:23:32.308Z,-0.72
2018-02-06T15:26:05.133Z,-0.77
2018-02-06T15:28:40.424Z,-0.84
2018-02-06T15:31:08.235Z,-0.89
2018-02-06T15:33:36.044Z,-0.94
2018-02-06T15:36:03.933Z,-0.99
2018-02-06T15:38:31.696Z,-1.03
2018-02-06T15:40:59.518Z,-1.08
2018-02-06T15:43:27.336Z,-1.08
2018-02-06T15:45:55.206Z,-1.13
2018-02-06T15:48:22.989Z,-1.18
2018-02-06T15:50:50.946Z,-1.26
2018-02-06T15:53:19.672Z,-1.28
2018-02-06T15:55:48.843Z,-1.32
2018-02-06T15:58:16.707Z,-1.36
2018-02-06T16:00:46.113Z,-1.42
2018-02-06T16:03:14.131Z,-1.35
2018-02-06T16:05:41.961Z,-1.22
2018-02-06T16:08:09.865Z,-1.21
2018-02-06T16:10:37.731Z,-1.27
2018-02-06T16:13:05.642Z,-1.32
2018-02-06T16:15:33.408Z,-1.36
2018-02-06T16:18:01.330Z,-1.44
2018-02-06T16:20:29.962Z,-1.49
2018-02-06T16:22:58.735Z,-1.44
2018-02-06T16:25:27.164Z,-1.42
2018-02-06T16:27:55.504Z,-1.44
2018-02-06T16:30:23.314Z,-1.51
2018-02-06T16:32:51.201Z,-1.40
2018-02-06T16:35:18.993Z,-1.36
2018-02-06T16:37:46.768Z,-1.39
2018-02-06T16:40:14.570Z,-1.53
2018-02-06T16:42:42.366Z,-1.62
2018-02-06T16:45:10.186Z,-1.72
2018-02-06T16:47:38.004Z,-1.81
2018-02-06T16:50:05.783Z,-1.86
2018-02-06T16:52:33.624Z,-1.80
2018-02-06T16:55:01.393Z,-1.80
2018-02-06T16:57:29.184Z,-1.75
2018-02-06T16:59:56.980Z,-1.71
2018-02-06T17:02:36.678Z,-1.77
2018-02-06T17:05:04.459Z,-1.81
2018-02-06T17:07:32.239Z,-1.83
2018-02-06T17:10:00.046Z,-1.86
2018-02-06T17:12:27.897Z,-1.92
2018-02-06T17:14:55.698Z,-1.92
2018-02-06T17:17:23.500Z,-1.90
2018-02-06T17:19:51.505Z,-1.95
2018-02-06T17:22:19.302Z,-1.98
2018-02-06T17:24:47.132Z,-2.15
2018-02-06T17:27:15.087Z,-2.09
2018-02-06T17:29:42.888Z,-2.14
2018-02-06T17:32:18.455Z,-2.15
2018-02-06T17:34:46.252Z,-2.16
2018-02-06T17:37:14.079Z,-2.24
2018-02-06T17:39:41.921Z,-2.21
2018-02-06T17:42:09.826Z,-2.16
2018-02-06T17:44:37.614Z,-2.15
2018-02-06T17:47:05.439Z,-2.23
2018-02-06T17:49:33.198Z,-2.32
2018-02-06T17:52:01.055Z,-2.45
2018-02-06T17:54:28.891Z,-2.62
2018-02-06T17:56:56.694Z,-2.64
2018-02-06T17:59:24.545Z,-2.63
2018-02-06T18:01:52.327Z,-2.55
2018-02-06T18:04:20.165Z,-2.63
2018-02-06T18:06:47.979Z,-2.62
2018-02-06T18:09:15.826Z,-2.63
2018-02-06T18:11:43.592Z,-2.73
2018-02-06T18:14:11.416Z,-2.69
2018-02-06T18:16:39.171Z,-2.75
2018-02-06T18:19:07.282Z,-2.71
2018-02-06T18:21:35.061Z,-2.82
2018-02-06T18:26:43.380Z,-2.88
2018-02-06T18:29:11.204Z,-2.83
2018-02-06T18:31:38.962Z,-2.93
2018-02-06T18:34:06.784Z,-2.86
2018-02-06T18:36:34.686Z,-2.84
2018-02-06T18:39:02.521Z,-2.82
2018-02-06T18:41:30.301Z,-2.90
2018-02-06T18:43:58.141Z,-2.89
2018-02-06T18:46:25.944Z,-2.90
2018-02-06T18:48:53.860Z,-2.90
2018-02-06T18:51:21.666Z,-2.93
2018-02-06T18:53:49.549Z,-3.05
2018-02-06T18:56:17.320Z,-2.94
2018-02-06T18:58:45.142Z,-3.02
2018-02-06T19:01:12.923Z,-3.19
2018-02-06T19:03:40.731Z,-3.16
2018-02-06T19:06:08.510Z,-3.19
2018-02-06T19:08:36.342Z,-3.18
2018-02-06T19:11:04.119Z,-3.26
2018-02-06T19:13:31.961Z,-3.26
2018-02-06T19:15:59.864Z,-3.32
2018-02-06T19:18:27.793Z,-3.42
2018-02-06T19:20:55.590Z,-3.45
2018-02-06T19:23:23.411Z,-3.49
2018-02-06T19:25:51.224Z,-3.53
2018-02-06T19:28:19.047Z,-3.64
2018-02-06T19:30:46.858Z,-3.71
2018-02-06T19:33:14.647Z,-3.76
2018-02-06T19:35:42.425Z,-3.83
2018-02-06T19:38:11.387Z,-3.85
2018-02-06T19:40:39.184Z,-3.87
2018-02-06T19:43:06.959Z,-3.91
2018-02-06T19:45:34.780Z,-3.99
2018-02-06T19:48:02.570Z,-4.03
2018-02-06T19:50:30.481Z,-4.00
2018-02-06T19:52:58.249Z,-3.97
2018-02-06T19:55:26.120Z,-3.86
2018-02-06T19:57:53.908Z,-3.80
2018-02-06T20:00:21.740Z,-3.70
2018-02-06T20:02:49.670Z,-3.72
2018-02-06T20:05:17.484Z,-3.57
2018-02-06T20:07:45.276Z,-3.53
2018-02-06T20:10:13.134Z,-3.57
2018-02-06T20:12:40.907Z,-3.72
2018-02-06T20:15:08.750Z,-3.76
2018-02-06T20:17:36.555Z,-3.80
2018-02-06T20:20:04.363Z,-3.90
2018-02-06T20:22:32.159Z,-4.00
2018-02-06T20:24:59.946Z,-4.02
2018-02-06T20:27:27.841Z,-3.95
2018-02-06T20:29:55.685Z,-3.94
2018-02-06T20:32:23.513Z,-3.90
2018-02-06T20:34:51.318Z,-3.83
2018-02-06T20:37:19.106Z,-3.84
2018-02-06T20:39:47.016Z,-3.90
2018-02-06T20:42:14.814Z,-3.96
2018-02-06T20:44:42.625Z,-4.13
2018-02-06T20:47:10.409Z,-4.34
2018-02-06T20:49:38.256Z,-4.49
2018-02-06T20:52:06.060Z,-4.63
2018-02-06T20:54:33.898Z,-4.78
2018-02-06T20:57:01.769Z,-4.84
2018-02-06T20:59:29.607Z,-4.87
2018-02-06T21:01:57.451Z,-4.89
2018-02-06T21:04:25.445Z,-4.87
2018-02-06T21:06:53.236Z,-4.86
2018-02-06T21:09:21.107Z,-4.86
2018-02-06T21:11:48.929Z,-4.87
2018-02-06T21:14:16.730Z,-4.87
2018-02-06T21:16:44.606Z,-4.87
2018-02-06T21:19:12.476Z,-4.89
2018-02-06T21:21:40.346Z,-4.85
2018-02-06T21:24:08.206Z,-4.94
2018-02-06T21:26:36.033Z,-5.05
2018-02-06T21:29:03.794Z,-5.06
2018-02-06T21:31:31.636Z,-5.08
2018-02-06T21:33:59.416Z,-5.13
2018-02-06T21:36:27.209Z,-5.13
2018-02-06T21:38:55.016Z,-5.06
2018-02-06T21:41:22.818Z,-5.05
2018-02-06T21:43:50.644Z,-4.96
2018-02-06T21:46:18.421Z,-4.88
2018-02-06T21:48:46.204Z,-4.77
2018-02-06T21:51:14.057Z,-4.63
2018-02-06T21:53:41.825Z,-4.50
2018-02-06T21:56:09.702Z,-4.31
2018-02-06T21:58:37.508Z,-4.26
2018-02-06T22:01:05.359Z,-4.27
2018-02-06T22:03:33.203Z,-4.20
2018-02-06T22:06:01.272Z,-4.17
2018-02-06T22:08:29.002Z,-4.14
2018-02-06T22:10:56.845Z,-4.14
2018-02-06T22:13:24.721Z,-4.16
2018-02-06T22:15:52.528Z,-4.13
2018-02-06T22:18:20.316Z,-4.03
2018-02-06T22:20:48.168Z,-4.01
2018-02-06T22:23:15.963Z,-4.13
2018-02-06T22:25:43.832Z,-4.20
2018-02-06T22:28:11.665Z,-4.01
2018-02-06T22:30:39.508Z,-3.91
2018-02-06T22:33:07.276Z,-3.92
2018-02-06T22:35:35.088Z,-4.01
2018-02-06T22:38:03.063Z,-4.12
2018-02-06T22:40:30.905Z,-4.16
2018-02-06T22:42:58.715Z,-4.16
2018-02-06T22:45:26.645Z,-4.17
2018-02-06T22:47:54.483Z,-4.18
2018-02-06T22:50:22.312Z,-4.16
2018-02-06T22:52:50.058Z,-4.11
2018-02-06T22:55:17.877Z,-4.18
2018-02-06T22:57:45.644Z,-4.24
2018-02-06T23:00:23.407Z,-4.28
2018-02-06T23:02:51.188Z,-4.23
2018-02-06T23:05:19.050Z,-4.28
2018-02-06T23:07:46.840Z,-4.37
2018-02-06T23:10:14.688Z,-4.30
2018-02-06T23:12:42.446Z,-4.33
2018-02-06T23:15:10.267Z,-4.32
2018-02-06T23:17:38.031Z,-4.29
2018-02-06T23:20:06.091Z,-4.36
2018-02-06T23:22:33.925Z,-4.39
2018-02-06T23:25:01.706Z,-4.42
2018-02-06T23:27:29.624Z,-4.40
2018-02-06T23:29:57.606Z,-4.42
2018-02-06T23:32:25.403Z,-4.44
2018-02-06T23:34:53.194Z,-4.51
2018-02-06T23:37:21.020Z,-4.61
2018-02-06T23:39:48.771Z,-4.68
2018-02-06T23:42:16.621Z,-4.63
2018-02-06T23:44:44.399Z,-4.60
2018-02-06T23:47:12.217Z,-4.54
2018-02-06T23:49:40.161Z,-4.53
2018-02-06T23:52:14.899Z,-4.59
2018-02-06T23:54:42.665Z,-4.61
2018-02-06T23:57:10.496Z,-4.59
2018-02-06T23:59:38.286Z,-4.58
